Time;durP1;ratioP1;P1;durP2;ratioP2;P2;SDS_P1;SDS_P2;PMS_P1;PMS_P2;Temp;Humidity;BMP_temperature;BMP_pressure;BME280_temperature;BME280_humidity;BME280_pressure;Samples;Min_cycle;Max_cycle;Signal;HPM_P1;HPM_P2
2021/06/11 00:01:35;;;;;;;7.18;6.57;;;;;;;21.76;56.90;100442.44;10482820;28;20125;-52
2021/06/11 00:06:37;;;;;;;6.57;5.97;;;;;;;21.70;57.18;100448.63;10488590;28;20139;-49
2021/06/11 00:11:41;;;;;;;7.15;6.35;;;;;;;21.69;57.29;100453.22;10483422;28;20085;-52
2021/06/11 00:16:43;;;;;;;7.05;6.50;;;;;;;21.65;57.52;100440.25;10477474;28;20100;-55
2021/06/11 00:21:44;;;;;;;7.57;6.78;;;;;;;21.64;57.67;100443.97;10465944;28;20162;-50
2021/06/11 00:26:46;;;;;;;7.10;6.40;;;;;;;21.57;57.66;100446.59;10470622;28;20843;-54
2021/06/11 00:31:47;;;;;;;6.63;6.03;;;;;;;21.54;57.69;100445.13;10480056;28;20090;-50
2021/06/11 00:36:49;;;;;;;7.03;6.32;;;;;;;21.51;58.13;100448.22;10487144;28;20063;-51
2021/06/11 00:41:50;;;;;;;7.45;6.78;;;;;;;21.45;57.86;100448.94;10486983;28;20569;-54
2021/06/11 00:46:52;;;;;;;9.52;7.82;;;;;;;21.33;58.42;100434.19;10478139;28;20052;-49
2021/06/11 00:51:53;;;;;;;7.72;7.05;;;;;;;21.28;59.11;100440.19;10484425;28;20043;-50
2021/06/11 00:56:55;;;;;;;7.25;6.65;;;;;;;21.24;59.16;100448.88;10488175;28;20498;-55
2021/06/11 01:01:56;;;;;;;8.13;7.45;;;;;;;21.18;59.79;100440.50;10483148;28;20068;-55
2021/06/11 01:06:58;;;;;;;8.23;7.63;;;;;;;21.13;60.30;100448.31;10493413;28;20171;-51
2021/06/11 01:11:59;;;;;;;8.30;7.63;;;;;;;21.10;60.29;100454.09;10482729;28;20126;-51
2021/06/11 01:17:01;;;;;;;8.73;7.78;;;;;;;21.05;60.57;100442.16;10495458;28;20458;-52
2021/06/11 01:22:36;;;;;;;9.27;8.38;;;;;;;21.05;60.92;100455.69;10490287;28;20136;-51
2021/06/11 01:27:40;;;;;;;8.52;7.63;;;;;;;20.90;61.47;100451.13;10491958;28;20036;-50
2021/06/11 01:32:44;;;;;;;8.10;7.40;;;;;;;20.89;61.65;100440.50;10477752;28;20140;-52
2021/06/11 01:37:47;;;;;;;8.52;7.82;;;;;;;20.83;61.54;100445.63;10480263;28;20124;-51
2021/06/11 01:42:49;;;;;;;10.45;9.45;;;;;;;20.78;61.88;100444.53;10470264;28;20048;-52
2021/06/11 01:47:52;;;;;;;9.10;8.40;;;;;;;20.70;62.38;100434.59;10467213;28;21085;-57
2021/06/11 01:52:55;;;;;;;8.27;7.50;;;;;;;20.68;62.50;100444.78;10480018;28;20048;-51
2021/06/11 01:57:59;;;;;;;9.32;8.43;;;;;;;20.64;62.71;100444.28;10483692;28;20072;-51
2021/06/11 02:03:01;;;;;;;;;;;;;;;20.57;62.55;100423.59;10485473;28;20069;-52
2021/06/11 02:08:03;;;;;;;8.90;8.20;;;;;;;20.60;62.64;100432.16;10495224;28;19960;-54
2021/06/11 02:13:05;;;;;;;8.73;7.95;;;;;;;20.53;62.80;100427.69;10487729;28;20124;-52
2021/06/11 02:18:07;;;;;;;8.32;7.63;;;;;;;20.57;62.73;100437.94;10479228;28;20072;-51
2021/06/11 02:23:08;;;;;;;8.88;8.07;;;;;;;20.49;62.80;100430.75;10477839;28;20064;-52
2021/06/11 02:28:15;;;;;;;9.52;8.73;;;;;;;20.45;63.27;100428.59;10478308;28;20064;-55
2021/06/11 02:33:18;;;;;;;8.82;8.13;;;;;;;20.39;63.52;100432.88;10483127;28;20040;-53
2021/06/11 02:38:20;;;;;;;9.23;8.27;;;;;;;20.33;63.89;100428.19;10474054;28;20132;-53
2021/06/11 02:43:23;;;;;;;8.85;8.10;;;;;;;20.27;64.25;100431.63;10477117;28;20697;-52
2021/06/11 02:48:43;;;;;;;10.63;9.57;;;;;;;20.24;64.52;100437.41;10490857;28;20079;-54
2021/06/11 02:53:46;;;;;;;9.20;8.38;;;;;;;20.12;64.96;100435.13;10493541;28;20079;-52
2021/06/11 02:58:55;;;;;;;11.07;9.97;;;;;;;20.11;65.52;100436.16;10482365;28;20126;-53
2021/06/11 03:03:58;;;;;;;9.23;8.48;;;;;;;20.08;65.19;100439.22;10495050;28;20559;-54
2021/06/11 03:09:00;;;;;;;9.55;8.65;;;;;;;20.11;65.51;100435.31;10484499;28;20462;-50
2021/06/11 03:14:02;;;;;;;10.27;9.30;;;;;;;20.05;65.81;100433.34;10478234;28;20417;-53
2021/06/11 03:19:08;;;;;;;11.10;9.93;;;;;;;19.87;66.20;100426.38;10501938;28;20131;-54
2021/06/11 03:24:20;;;;;;;9.77;8.75;;;;;;;19.87;66.71;100436.34;10486439;28;20605;-51
2021/06/11 03:29:28;;;;;;;9.65;8.85;;;;;;;19.82;66.81;100445.00;10485954;28;20135;-51
2021/06/11 03:34:36;;;;;;;11.80;10.90;;;;;;;19.79;66.90;100450.75;10489887;28;20273;-50
2021/06/11 03:39:51;;;;;;;9.90;8.98;;;;;;;19.75;67.15;100454.78;10482407;28;20135;-50
2021/06/11 03:44:53;;;;;;;9.55;8.70;;;;;;;19.77;66.93;100448.22;10482879;28;20125;-51
2021/06/11 03:49:58;;;;;;;10.80;9.80;;;;;;;19.81;66.93;100448.69;10487485;28;20123;-51
2021/06/11 03:55:08;;;;;;;10.95;9.70;;;;;;;19.75;67.17;100460.19;10481900;28;20098;-50
2021/06/11 04:00:10;;;;;;;10.93;9.88;;;;;;;19.70;67.21;100449.94;10484951;28;20068;-51
2021/06/11 04:05:13;;;;;;;11.65;10.65;;;;;;;19.69;67.23;100455.50;10489416;28;20056;-52
2021/06/11 04:10:34;;;;;;;9.23;8.40;;;;;;;19.73;67.19;100452.28;10490755;28;20124;-51
2021/06/11 04:15:39;;;;;;;9.40;8.68;;;;;;;19.78;66.95;100457.16;10487006;28;20552;-51
2021/06/11 04:20:44;;;;;;;9.73;8.85;;;;;;;19.87;66.75;100457.94;10482482;28;20128;-51
2021/06/11 04:25:48;;;;;;;9.48;8.73;;;;;;;19.94;66.85;100458.94;10482896;28;20072;-52
2021/06/11 04:30:53;;;;;;;13.02;10.23;;;;;;;19.98;66.51;100465.63;10475494;28;20128;-51
2021/06/11 04:35:56;;;;;;;10.30;9.40;;;;;;;20.05;66.36;100461.19;10479695;28;20142;-55
2021/06/11 04:40:57;;;;;;;9.93;9.07;;;;;;;20.07;66.30;100469.97;10481940;28;20123;-50
2021/06/11 04:45:59;;;;;;;10.30;9.43;;;;;;;20.04;66.63;100464.06;10480925;28;20047;-51
2021/06/11 04:51:01;;;;;;;9.98;9.07;;;;;;;20.04;66.71;100470.34;10482066;28;20493;-51
2021/06/11 04:56:07;;;;;;;9.18;8.30;;;;;;;20.06;66.74;100468.28;10486195;28;20068;-51
2021/06/11 05:01:10;;;;;;;9.90;9.02;;;;;;;20.09;66.41;100467.09;10475010;28;20120;-51
2021/06/11 05:06:11;;;;;;;10.97;9.77;;;;;;;20.12;66.13;100467.56;10462114;28;20134;-65
2021/06/11 05:11:13;;;;;;;11.70;9.75;;;;;;;20.16;66.21;100467.19;10476662;28;20048;-65
2021/06/11 05:16:14;;;;;;;11.82;10.77;;;;;;;20.25;66.05;100472.38;10461417;28;20222;-65
2021/06/11 05:21:16;;;;;;;10.38;9.40;;;;;;;20.37;66.07;100475.47;10487749;28;20401;-65
2021/06/11 05:26:18;;;;;;;10.68;9.77;;;;;;;20.41;65.32;100471.38;10465327;28;20051;-65
2021/06/11 05:31:19;;;;;;;11.60;10.32;;;;;;;20.46;65.38;100477.09;10485319;28;20121;-66
2021/06/11 05:36:21;;;;;;;11.73;10.10;;;;;;;20.56;65.50;100484.09;10471747;28;20049;-65
2021/06/11 05:41:23;;;;;;;11.02;9.93;;;;;;;20.68;65.03;100471.81;10483156;28;20131;-69
2021/06/11 05:46:25;;;;;;;12.80;9.90;;;;;;;20.71;64.38;100474.16;10490718;28;20513;-66
2021/06/11 05:51:26;;;;;;;12.48;11.25;;;;;;;20.76;64.04;100474.47;10482866;28;20417;-66
2021/06/11 05:56:27;;;;;;;37.70;15.20;;;;;;;20.83;63.63;100475.38;10488142;28;20155;-66
2021/06/11 06:01:29;;;;;;;12.13;9.98;;;;;;;21.00;63.59;100481.47;10477468;28;20053;-66
2021/06/11 06:06:30;;;;;;;11.25;10.13;;;;;;;20.96;63.99;100476.63;10483564;28;20055;-65
2021/06/11 06:11:32;;;;;;;10.75;9.73;;;;;;;21.08;63.48;100475.13;10462689;28;20771;-65
2021/06/11 06:16:33;;;;;;;10.35;9.25;;;;;;;21.14;63.20;100479.78;10494774;28;20132;-67
2021/06/11 06:21:35;;;;;;;10.75;9.82;;;;;;;21.27;62.88;100467.44;10499320;28;20162;-68
2021/06/11 06:26:36;;;;;;;10.80;9.75;;;;;;;21.39;63.02;100468.63;10491139;28;20065;-65
2021/06/11 06:31:38;;;;;;;11.30;10.25;;;;;;;21.42;62.65;100473.66;10471931;28;20049;-65
2021/06/11 06:36:39;;;;;;;11.07;9.13;;;;;;;21.61;61.70;100469.56;10462974;28;20131;-67
2021/06/11 06:41:41;;;;;;;11.77;10.15;;;;;;;21.80;61.36;100481.66;10466711;28;20052;-66
2021/06/11 06:46:42;;;;;;;13.77;9.20;;;;;;;21.93;61.06;100477.41;10464206;28;20052;-66
2021/06/11 06:51:44;;;;;;;10.73;9.73;;;;;;;22.02;60.55;100468.09;10467652;28;20051;-65
2021/06/11 06:56:46;;;;;;;10.73;9.70;;;;;;;22.18;60.20;100473.28;10463363;28;20036;-66
2021/06/11 07:01:48;;;;;;;11.38;10.30;;;;;;;22.41;59.57;100477.66;10453747;28;20288;-66
2021/06/11 07:06:50;;;;;;;10.87;10.00;;;;;;;22.56;59.34;100470.31;10476041;28;20667;-67
2021/06/11 07:11:52;;;;;;;10.95;9.95;;;;;;;22.73;58.73;100475.44;10469552;28;20352;-64
2021/06/11 07:16:54;;;;;;;10.65;9.60;;;;;;;22.82;58.08;100474.22;10471915;28;20642;-67
2021/06/11 07:21:55;;;;;;;10.90;9.90;;;;;;;22.93;57.40;100468.22;10469351;28;20451;-66
2021/06/11 07:26:57;;;;;;;12.75;10.18;;;;;;;23.10;57.74;100467.94;10463839;28;20488;-67
2021/06/11 07:31:58;;;;;;;11.68;10.57;;;;;;;23.19;57.24;100466.72;10474458;28;20109;-66
2021/06/11 07:36:59;;;;;;;11.82;9.45;;;;;;;23.35;57.75;100457.41;10471178;28;20139;-67
2021/06/11 07:42:01;;;;;;;11.02;10.02;;;;;;;23.53;56.35;100451.41;10462480;28;20125;-65
2021/06/11 07:47:03;;;;;;;10.90;9.90;;;;;;;23.65;55.21;100462.53;10461843;28;20496;-67
2021/06/11 07:52:06;;;;;;;10.18;9.18;;;;;;;23.72;55.19;100441.66;10466132;28;20129;-67
2021/06/11 07:57:08;;;;;;;10.13;9.10;;;;;;;23.99;54.48;100447.19;10462406;28;20125;-67
2021/06/11 08:02:11;;;;;;;9.73;8.77;;;;;;;24.20;54.16;100442.56;10467494;28;20706;-68
2021/06/11 08:07:15;;;;;;;;;;;;;;;24.34;52.26;100453.25;10463228;28;20129;-66
2021/06/11 08:12:17;;;;;;;8.68;7.72;;;;;;;24.48;52.64;100453.22;10462121;28;20011;-68
2021/06/11 08:17:26;;;;;;;9.52;8.68;;;;;;;24.75;49.59;100451.34;10466468;28;20044;-67
2021/06/11 08:22:28;;;;;;;8.63;7.70;;;;;;;24.77;49.25;100453.84;10466359;28;20059;-66
2021/06/11 08:27:29;;;;;;;9.98;8.30;;;;;;;25.05;49.17;100445.41;10459219;28;20536;-67
2021/06/11 08:32:31;;;;;;;9.82;7.63;;;;;;;25.27;47.50;100448.69;10458647;28;20064;-67
2021/06/11 08:37:33;;;;;;;8.95;8.02;;;;;;;25.63;47.57;100443.72;10452761;28;20098;-66
2021/06/11 08:42:36;;;;;;;9.13;8.33;;;;;;;26.09;46.93;100454.38;10463567;28;20060;-68
2021/06/11 08:47:38;;;;;;;;;;;;;;;26.44;46.37;100455.75;10456996;28;20472;-68
2021/06/11 08:52:39;;;;;;;9.10;8.05;;;;;;;26.57;45.48;100443.88;10462301;28;19920;-68
2021/06/11 08:57:41;;;;;;;9.20;7.68;;;;;;;26.53;45.82;100450.81;10462164;28;20155;-68
2021/06/11 09:03:06;;;;;;;8.90;8.13;;;;;;;26.56;46.14;100444.94;10462275;22;20068;-58
2021/06/11 09:08:17;;;;;;;8.65;7.82;;;;;;;26.77;44.98;100435.53;10396713;28;20144;-58
2021/06/11 09:13:24;;;;;;;12.70;8.65;;;;;;;27.09;45.21;100449.03;10400433;28;20060;-57
2021/06/11 09:18:25;;;;;;;13.20;8.18;;;;;;;27.22;43.79;100439.81;10402787;28;20143;-57
2021/06/11 09:23:27;;;;;;;8.32;7.40;;;;;;;27.54;44.12;100431.47;10388040;28;20142;-58
2021/06/11 09:28:30;;;;;;;10.43;9.53;;;;;;;27.66;42.46;100437.81;10395116;28;20053;-58
2021/06/11 09:33:40;;;;;;;;;;;;;;;28.02;42.46;100441.50;10390132;28;20076;-57
2021/06/11 09:38:44;;;;;;;9.18;8.25;;;;;;;28.33;41.67;100436.78;10393556;28;20010;-58
2021/06/11 09:43:56;;;;;;;8.93;8.13;;;;;;;28.74;40.49;100437.78;10393264;28;20122;-58
2021/06/11 09:48:58;;;;;;;9.63;8.93;;;;;;;28.69;40.71;100434.91;10390279;28;20191;-58
2021/06/11 09:54:28;;;;;;;7.78;7.00;;;;;;;28.61;39.90;100432.53;10395721;28;20045;-58
2021/06/11 09:59:43;;;;;;;8.10;6.82;;;;;;;28.76;40.56;100435.63;10393263;28;20109;-58
2021/06/11 10:04:45;;;;;;;9.32;8.45;;;;;;;28.77;38.49;100431.00;10397603;28;20073;-57
2021/06/11 10:09:49;;;;;;;7.40;6.85;;;;;;;28.79;39.92;100428.84;10392635;28;20128;-57
2021/06/11 10:14:51;;;;;;;8.50;7.80;;;;;;;29.08;37.86;100416.03;10397188;28;21918;-57
2021/06/11 10:19:52;;;;;;;9.57;7.43;;;;;;;28.43;39.76;100420.59;10391207;28;20069;-58
2021/06/11 10:24:55;;;;;;;6.30;5.53;;;;;;;28.77;38.87;100422.78;10391972;28;20135;-57
2021/06/11 10:29:57;;;;;;;7.78;5.95;;;;;;;29.40;35.06;100413.69;10398911;28;20132;-58
2021/06/11 10:34:59;;;;;;;;;;;;;;;29.48;35.09;100412.44;10402167;28;20079;-61
2021/06/11 10:40:21;;;;;;;4.20;3.80;;;;;;;29.69;34.54;100421.06;10400338;28;20007;-59
2021/06/11 10:45:43;;;;;;;3.78;3.47;;;;;;;30.07;33.50;100411.31;10400741;28;20049;-59
2021/06/11 10:50:45;;;;;;;4.20;3.78;;;;;;;30.81;33.20;100404.75;10400538;28;20037;-59
2021/06/11 10:55:49;;;;;;;5.07;4.55;;;;;;;30.17;32.54;100395.00;10405017;28;20410;-58
2021/06/11 11:00:51;;;;;;;6.35;4.13;;;;;;;29.30;34.59;100401.69;10397141;28;20502;-58
2021/06/11 11:05:53;;;;;;;3.60;3.30;;;;;;;29.20;35.00;100397.66;10400595;28;20072;-58
2021/06/11 11:10:54;;;;;;;4.25;3.20;;;;;;;29.80;33.73;100406.47;10398771;28;20132;-58
2021/06/11 11:15:57;;;;;;;4.67;3.27;;;;;;;30.72;32.04;100400.81;10400060;28;20141;-58
2021/06/11 11:21:00;;;;;;;3.40;3.10;;;;;;;31.32;30.40;100385.34;10397590;28;20061;-58
2021/06/11 11:26:02;;;;;;;3.90;2.67;;;;;;;30.93;30.84;100385.41;10401304;28;20125;-58
2021/06/11 11:31:03;;;;;;;5.13;2.80;;;;;;;31.27;31.11;100375.13;10394459;28;20824;-59
2021/06/11 11:36:05;;;;;;;3.67;3.35;;;;;;;31.61;30.55;100366.66;10398819;28;20053;-58
2021/06/11 11:41:07;;;;;;;3.08;2.78;;;;;;;31.84;30.94;100373.75;10399379;28;20132;-59
2021/06/11 11:46:08;;;;;;;3.35;2.70;;;;;;;32.09;30.08;100364.03;10398876;28;20135;-58
2021/06/11 11:51:10;;;;;;;5.10;3.38;;;;;;;31.26;30.75;100367.13;10403166;28;20548;-58
2021/06/11 11:56:12;;;;;;;3.53;2.90;;;;;;;31.13;31.39;100365.59;10403208;28;20072;-62
2021/06/11 12:01:13;;;;;;;83.38;16.88;;;;;;;31.46;30.13;100344.50;10397095;28;20481;-57
2021/06/11 12:06:15;;;;;;;3.67;3.03;;;;;;;31.05;31.27;100360.53;10404760;28;20045;-57
2021/06/11 12:11:16;;;;;;;5.30;2.60;;;;;;;30.64;32.39;100356.19;10400714;28;20069;-57
2021/06/11 12:16:18;;;;;;;3.85;3.20;;;;;;;30.54;32.25;100345.06;10401297;28;20045;-57
2021/06/11 12:21:20;;;;;;;3.65;2.88;;;;;;;30.22;33.29;100342.97;10396014;28;20045;-57
2021/06/11 12:26:22;;;;;;;;;;;;;;;30.09;32.77;100344.13;10398627;28;20979;-58
2021/06/11 12:31:23;;;;;;;3.78;3.05;;;;;;;29.60;34.58;100325.47;10400094;28;20004;-58
2021/06/11 12:36:25;;;;;;;3.03;2.78;;;;;;;29.87;34.70;100346.78;10402164;28;20081;-58
2021/06/11 12:41:28;;;;;;;3.30;3.00;;;;;;;29.92;34.73;100346.03;10394813;28;20084;-58
2021/06/11 12:46:31;;;;;;;3.75;3.45;;;;;;;29.75;35.56;100337.78;10398093;28;20168;-57
2021/06/11 12:51:33;;;;;;;4.93;3.17;;;;;;;29.59;35.49;100329.31;10397632;28;20143;-58
2021/06/11 12:56:37;;;;;;;4.00;2.45;;;;;;;29.59;35.96;100329.31;10388944;28;20503;-57
2021/06/11 13:01:39;;;;;;;3.20;2.90;;;;;;;29.62;35.72;100319.75;10393250;28;20466;-57
2021/06/11 13:06:41;;;;;;;;;;;;;;;29.40;34.75;100316.91;10397000;28;20052;-57
2021/06/11 13:11:43;;;;;;;3.45;2.58;;;;;;;29.39;34.89;100315.25;10399050;28;20397;-57
2021/06/11 13:16:44;;;;;;;4.47;2.17;;;;;;;29.67;34.08;100308.03;10394955;28;20207;-58
2021/06/11 13:21:46;;;;;;;2.03;1.77;;;;;;;29.93;33.81;100299.16;10397728;28;20288;-58
2021/06/11 13:26:48;;;;;;;2.08;1.95;;;;;;;29.91;33.67;100300.50;10396394;28;20165;-58
2021/06/11 13:31:49;;;;;;;2.60;2.03;;;;;;;29.53;33.91;100289.19;10397701;28;20455;-57
2021/06/11 13:36:51;;;;;;;;;;;;;;;29.71;34.19;100307.28;10394362;28;20207;-58
2021/06/11 13:41:53;;;;;;;3.72;1.80;;;;;;;29.83;33.01;100296.28;10397259;28;20003;-58
2021/06/11 13:46:54;;;;;;;2.35;1.63;;;;;;;29.82;32.68;100294.59;10393811;28;20122;-58
2021/06/11 13:51:56;;;;;;;2.33;1.42;;;;;;;30.03;31.42;100295.75;10406425;28;20118;-59
2021/06/11 13:56:57;;;;;;;1.93;1.20;;;;;;;29.89;30.79;100266.97;10396759;28;20136;-57
2021/06/11 14:01:59;;;;;;;2.90;1.40;;;;;;;29.96;32.00;100300.56;10396334;28;20259;-58
2021/06/11 14:07:00;;;;;;;3.50;1.08;;;;;;;29.94;31.62;100289.84;10402597;28;20056;-58
2021/06/11 14:12:02;;;;;;;2.23;1.17;;;;;;;29.84;30.67;100266.91;10400198;28;20099;-57
2021/06/11 14:17:04;;;;;;;1.55;1.02;;;;;;;29.78;30.89;100277.75;10402095;28;20052;-57
2021/06/11 14:22:05;;;;;;;1.33;1.20;;;;;;;29.69;31.14;100272.97;10400997;28;20135;-56
2021/06/11 14:27:07;;;;;;;1.47;1.10;;;;;;;29.54;30.78;100277.09;10404805;28;20133;-57
2021/06/11 14:32:09;;;;;;;;;;;;;;;29.50;30.94;100278.72;10398774;28;20053;-55
2021/06/11 14:37:10;;;;;;;1.80;1.00;;;;;;;29.58;31.45;100270.06;10400619;28;19956;-56
2021/06/11 14:42:12;;;;;;;2.70;1.25;;;;;;;29.53;30.72;100266.38;10399764;28;20132;-58
2021/06/11 14:47:13;;;;;;;2.17;1.40;;;;;;;29.38;29.94;100264.22;10401715;28;20454;-58
2021/06/11 14:52:17;;;;;;;1.97;0.93;;;;;;;29.40;29.42;100260.16;10401026;28;20176;-57
2021/06/11 14:57:18;;;;;;;2.90;1.10;;;;;;;29.42;30.70;100266.22;10409329;28;20073;-58
2021/06/11 15:02:20;;;;;;;2.73;1.10;;;;;;;29.42;29.59;100260.72;10402861;28;20264;-58
2021/06/11 15:13:44;;;;;;;1.37;0.93;;;;;;;29.19;29.89;100239.75;10458711;28;20045;-67
2021/06/11 15:18:45;;;;;;;2.53;1.00;;;;;;;29.31;29.98;100244.38;10443586;28;20303;-67
2021/06/11 15:23:46;;;;;;;2.00;0.93;;;;;;;29.25;29.88;100229.75;10426925;28;20147;-67
2021/06/11 15:28:48;;;;;;;1.63;1.40;;;;;;;29.19;30.63;100239.75;10427980;28;20522;-67
2021/06/11 15:33:50;;;;;;;1.40;1.23;;;;;;;29.11;30.37;100229.22;10422505;28;20481;-67
2021/06/11 15:38:51;;;;;;;1.98;1.40;;;;;;;29.11;30.85;100240.19;10422893;28;20045;-68
2021/06/11 15:43:53;;;;;;;2.38;2.17;;;;;;;29.17;31.27;100230.13;10425266;28;20593;-65
2021/06/11 15:48:55;;;;;;;1.80;1.02;;;;;;;29.10;30.97;100217.41;10422123;28;20060;-67
2021/06/11 15:53:59;;;;;;;1.40;1.30;;;;;;;29.24;31.49;100233.56;10428491;28;20132;-67
2021/06/11 15:59:00;;;;;;;1.67;1.35;;;;;;;29.12;31.85;100219.09;10422371;28;20075;-68
2021/06/11 16:04:03;;;;;;;1.70;1.38;;;;;;;29.18;32.02;100235.34;10422436;28;20052;-68
2021/06/11 16:09:05;;;;;;;5.25;2.05;;;;;;;29.14;32.41;100228.72;10423258;28;20045;-68
2021/06/11 16:14:06;;;;;;;3.20;2.15;;;;;;;29.09;31.35;100232.22;10415368;28;20073;-67
2021/06/11 16:19:08;;;;;;;1.48;1.38;;;;;;;28.94;30.95;100222.88;10423619;28;20079;-68
2021/06/11 16:24:09;;;;;;;2.17;1.63;;;;;;;28.88;31.28;100225.50;10434613;28;20116;-67
2021/06/11 16:29:11;;;;;;;3.47;1.83;;;;;;;28.78;31.38;100214.38;10431100;28;20068;-67
2021/06/11 16:34:12;;;;;;;1.77;1.30;;;;;;;28.89;31.61;100227.19;10420203;28;20087;-68
2021/06/11 16:39:13;;;;;;;1.60;1.08;;;;;;;28.80;31.02;100206.75;10431890;28;20073;-67
2021/06/11 16:44:15;;;;;;;3.45;1.25;;;;;;;28.85;30.94;100219.69;10417106;28;20188;-68
2021/06/11 16:49:16;;;;;;;2.08;1.20;;;;;;;28.72;30.88;100210.72;10413139;28;20514;-67
2021/06/11 16:54:18;;;;;;;1.30;0.70;;;;;;;28.77;29.44;100226.41;10426581;28;20186;-67
2021/06/11 16:59:19;;;;;;;1.52;0.85;;;;;;;28.68;29.97;100211.44;10428455;28;20049;-69
2021/06/11 17:04:23;;;;;;;1.15;0.70;;;;;;;28.64;29.96;100223.97;10443944;28;20101;-67
2021/06/11 17:09:24;;;;;;;1.25;0.52;;;;;;;28.56;29.13;100223.22;10424489;28;20523;-68
2021/06/11 17:14:26;;;;;;;0.60;0.50;;;;;;;28.43;29.56;100212.56;10418777;28;21006;-68
2021/06/11 17:19:28;;;;;;;2.97;0.98;;;;;;;28.33;29.57;100206.88;10454007;28;20037;-67
2021/06/11 17:24:29;;;;;;;2.53;0.73;;;;;;;28.32;29.67;100221.66;10431939;28;20079;-69
2021/06/11 17:29:45;;;;;;;1.17;1.08;;;;;;;28.28;29.88;100226.75;10453637;22;20052;-78
2021/06/11 17:34:53;;;;;;;2.10;1.13;;;;;;;28.21;29.96;100237.03;10476378;28;20072;-79
2021/06/11 17:39:59;;;;;;;1.70;1.10;;;;;;;28.12;30.82;100228.38;10466953;28;20098;-78
2021/06/11 17:45:01;;;;;;;1.83;1.05;;;;;;;27.92;30.43;100219.66;10471363;28;20110;-79
2021/06/11 17:50:05;;;;;;;2.83;1.17;;;;;;;27.81;31.18;100221.34;10465399;28;20128;-76
2021/06/11 17:55:07;;;;;;;1.90;1.27;;;;;;;27.77;31.87;100242.03;10477812;28;21266;-78
2021/06/11 18:00:09;;;;;;;1.53;1.03;;;;;;;27.73;32.42;100246.28;10472950;28;20776;-77
2021/06/11 18:05:12;;;;;;;1.40;1.30;;;;;;;27.69;32.92;100251.41;10456001;28;20090;-81
2021/06/11 18:10:13;;;;;;;2.42;1.02;;;;;;;27.62;32.89;100250.69;10462297;28;20337;-79
2021/06/11 18:15:15;;;;;;;4.25;2.08;;;;;;;27.50;33.47;100240.59;10472618;28;20072;-78
2021/06/11 18:20:22;;;;;;;2.63;1.95;;;;;;;27.41;33.59;100250.19;10460890;28;20118;-76
2021/06/11 18:25:27;;;;;;;3.13;1.48;;;;;;;27.33;34.16;100242.34;10468306;28;20075;-76
2021/06/11 18:30:28;;;;;;;1.70;1.60;;;;;;;27.30;34.82;100260.00;10461876;28;20056;-78
2021/06/11 18:35:30;;;;;;;2.47;1.70;;;;;;;27.22;34.95;100251.28;10469870;28;20044;-78
2021/06/11 18:40:35;;;;;;;3.10;1.58;;;;;;;27.21;35.41;100255.13;10449615;28;20503;-78
2021/06/11 18:45:43;;;;;;;2.35;1.30;;;;;;;27.12;35.38;100251.88;10469362;28;20076;-79
2021/06/11 18:50:46;;;;;;;2.90;1.95;;;;;;;26.95;35.88;100251.72;10467901;28;20041;-76
2021/06/11 18:55:52;;;;;;;2.63;2.42;;;;;;;26.89;36.44;100258.06;10470973;28;20044;-79
2021/06/11 19:00:54;;;;;;;3.75;2.00;;;;;;;26.77;36.72;100253.41;10465135;28;20132;-78
2021/06/11 19:06:02;;;;;;;2.00;1.80;;;;;;;26.72;37.08;100264.22;10464440;28;20110;-78
2021/06/11 19:11:24;;;;;;;3.15;2.45;;;;;;;26.58;37.61;100262.66;10477348;28;20268;-79
2021/06/11 19:16:40;;;;;;;2.25;1.80;;;;;;;26.38;37.51;100232.91;10386692;28;21384;-79
2021/06/11 19:21:53;;;;;;;3.95;2.47;;;;;;;26.49;37.77;100264.88;10446320;28;20045;-78
2021/06/11 19:26:55;;;;;;;5.28;2.25;;;;;;;26.35;38.02;100261.47;10475154;28;20036;-78
2021/06/11 19:31:58;;;;;;;4.97;2.33;;;;;;;26.22;38.17;100265.16;10479283;28;20092;-78
2021/06/11 19:37:03;;;;;;;3.30;2.28;;;;;;;26.21;38.18;100284.50;10477317;28;20049;-80
2021/06/11 19:42:21;;;;;;;2.70;2.08;;;;;;;26.05;38.97;100275.03;10460242;28;20044;-78
2021/06/11 19:47:23;;;;;;;3.70;2.50;;;;;;;25.98;39.21;100279.69;10458075;28;20068;-78
2021/06/11 19:52:25;;;;;;;2.97;2.00;;;;;;;26.01;39.44;100293.72;10465109;28;20044;-79
2021/06/11 19:57:26;;;;;;;7.05;3.03;;;;;;;25.96;39.92;100290.81;10468314;28;20102;-78
2021/06/11 20:02:28;;;;;;;3.83;2.45;;;;;;;25.87;40.14;100290.25;10452725;28;20072;-80
2021/06/11 20:07:29;;;;;;;7.85;2.45;;;;;;;25.82;40.44;100302.88;10466643;28;20079;-78
2021/06/11 20:12:31;;;;;;;2.97;2.22;;;;;;;25.81;40.56;100309.41;10460891;28;20060;-78
2021/06/11 20:17:33;;;;;;;3.45;2.70;;;;;;;25.75;41.18;100316.59;10455223;28;20772;-78
2021/06/11 20:22:35;;;;;;;3.65;3.00;;;;;;;25.55;42.41;100312.13;10460126;28;20094;-78
2021/06/11 20:27:37;;;;;;;3.90;2.97;;;;;;;25.56;42.33;100316.50;10450866;28;20060;-78
2021/06/11 20:32:38;;;;;;;3.80;2.40;;;;;;;25.38;42.98;100303.63;10442281;28;20072;-78
2021/06/11 20:37:40;;;;;;;4.22;3.15;;;;;;;25.35;43.51;100312.25;10455169;28;20102;-78
2021/06/11 20:42:41;;;;;;;4.63;3.15;;;;;;;25.26;43.50;100310.81;10461716;28;20040;-79
2021/06/11 20:47:43;;;;;;;4.32;3.28;;;;;;;25.22;43.75;100315.00;10462050;28;20083;-78
2021/06/11 20:52:45;;;;;;;3.63;3.10;;;;;;;25.12;43.62;100317.41;10460949;28;20098;-78
2021/06/11 20:57:51;;;;;;;3.70;3.40;;;;;;;25.10;44.82;100327.66;10456742;28;20056;-78
2021/06/11 21:02:54;;;;;;;5.38;2.97;;;;;;;25.00;45.37;100322.69;10440743;28;20061;-78
2021/06/11 21:07:56;;;;;;;5.03;3.42;;;;;;;24.97;44.98;100334.84;10458207;28;20048;-78
2021/06/11 21:12:58;;;;;;;4.73;2.97;;;;;;;24.87;45.18;100326.31;10450932;28;20049;-79
2021/06/11 21:17:59;;;;;;;3.70;3.38;;;;;;;24.82;46.01;100320.69;10460769;28;20068;-79
2021/06/11 21:23:03;;;;;;;3.33;3.03;;;;;;;24.72;46.26;100325.75;10455213;28;20040;-78
2021/06/11 21:28:06;;;;;;;4.43;3.15;;;;;;;24.66;45.80;100328.25;10452925;28;20148;-78
2021/06/11 21:33:07;;;;;;;4.50;3.17;;;;;;;24.62;46.20;100331.63;10451219;28;20045;-76
2021/06/11 21:38:09;;;;;;;3.63;3.25;;;;;;;24.53;46.84;100328.31;10471186;28;20061;-76
2021/06/11 21:43:10;;;;;;;4.22;3.30;;;;;;;24.45;47.30;100337.50;10450497;28;20069;-77
2021/06/11 21:48:13;;;;;;;4.65;4.15;;;;;;;24.43;46.92;100344.22;10456123;28;20593;-77
2021/06/11 21:53:14;;;;;;;5.22;2.70;;;;;;;24.33;46.80;100350.09;10450794;28;20072;-76
2021/06/11 21:58:16;;;;;;;3.40;2.83;;;;;;;24.26;47.38;100352.84;10453393;28;20067;-75
2021/06/11 22:03:17;;;;;;;3.22;2.97;;;;;;;24.17;47.81;100345.94;10466620;28;20514;-77
2021/06/11 22:08:18;;;;;;;9.05;4.45;;;;;;;24.16;48.17;100360.59;10461714;28;20080;-77
2021/06/11 22:13:20;;;;;;;3.55;3.25;;;;;;;24.15;47.92;100353.47;10448300;28;20123;-77
2021/06/11 22:18:21;;;;;;;4.82;3.30;;;;;;;24.13;47.72;100369.16;10454135;28;20589;-81
2021/06/11 22:23:23;;;;;;;4.35;3.45;;;;;;;24.01;48.31;100363.50;10452228;28;20145;-77
2021/06/11 22:28:25;;;;;;;3.17;2.95;;;;;;;24.07;48.22;100370.00;10464744;28;20146;-76
2021/06/11 22:33:26;;;;;;;4.80;3.10;;;;;;;24.00;48.19;100362.69;10509916;28;20049;-75
2021/06/11 22:38:28;;;;;;;4.97;3.25;;;;;;;23.93;48.40;100359.13;10461718;28;20056;-75
2021/06/11 22:43:29;;;;;;;3.40;3.10;;;;;;;24.02;48.43;100372.50;10461683;28;20597;-74
2021/06/11 22:48:31;;;;;;;6.88;3.22;;;;;;;23.97;48.20;100365.78;10461335;28;20135;-75
2021/06/11 22:53:33;;;;;;;2.75;2.30;;;;;;;23.95;48.71;100370.63;10459825;28;20131;-73
2021/06/11 22:58:36;;;;;;;4.32;3.08;;;;;;;23.98;48.99;100370.19;10454724;28;20151;-74
2021/06/11 23:03:38;;;;;;;;;;;;;;;24.01;49.22;100374.38;10450566;28;20104;-71
2021/06/11 23:08:39;;;;;;;6.72;3.60;;;;;;;24.02;48.44;100369.78;10454339;28;20019;-73
2021/06/11 23:13:41;;;;;;;5.75;3.20;;;;;;;24.00;48.78;100372.69;10456853;28;20140;-73
2021/06/11 23:18:43;;;;;;;3.28;2.97;;;;;;;23.93;49.18;100356.41;10465002;28;20055;-75